sensor_id;sensor_type;location;lat;lon;timestamp;pressure;altitude;pressure_sealevel;temperature;humidity
69766;BME280;57039;48.014;21.384;2023-09-12T00:00:51;100468.16;;;18.50;100.00
69766;BME280;57039;48.014;21.384;2023-09-12T00:01:54;100456.94;;;18.37;100.00
69766;BME280;57039;48.014;21.384;2023-09-12T00:02:57;100465.22;;;18.43;100.00
69766;BME280;57039;48.014;21.384;2023-09-12T00:04:00;100468.97;;;18.41;100.00
69766;BME280;57039;48.014;21.384;2023-09-12T00:05:03;100470.91;;;18.39;100.00
69766;BME280;57039;48.014;21.384;2023-09-12T00:06:07;100466.72;;;18.36;100.00
69766;BME280;57039;48.014;21.384;2023-09-12T00:07:10;100480.97;;;18.35;100.00
69766;BME280;57039;48.014;21.384;2023-09-12T00:08:13;100472.75;;;18.38;100.00
69766;BME280;57039;48.014;21.384;2023-09-12T00:09:16;100471.75;;;18.39;100.00
69766;BME280;57039;48.014;21.384;2023-09-12T00:10:19;100472.75;;;18.38;100.00
69766;BME280;57039;48.014;21.384;2023-09-12T00:11:22;100471.19;;;18.36;100.00
69766;BME280;57039;48.014;21.384;2023-09-12T00:12:29;100466.03;;;18.34;100.00
69766;BME280;57039;48.014;21.384;2023-09-12T00:13:33;100469.22;;;18.28;100.00
69766;BME280;57039;48.014;21.384;2023-09-12T00:14:36;100471.44;;;18.23;100.00
69766;BME280;57039;48.014;21.384;2023-09-12T00:15:39;100469.75;;;18.22;100.00
69766;BME280;57039;48.014;21.384;2023-09-12T00:16:42;100468.06;;;18.21;100.00
69766;BME280;57039;48.014;21.384;2023-09-12T00:17:45;100437.69;;;18.04;100.00
69766;BME280;57039;48.014;21.384;2023-09-12T00:18:48;100472.28;;;18.33;100.00
69766;BME280;57039;48.014;21.384;2023-09-12T00:19:51;100472.88;;;18.37;100.00
69766;BME280;57039;48.014;21.384;2023-09-12T00:20:54;100468.41;;;18.37;100.00
69766;BME280;57039;48.014;21.384;2023-09-12T00:21:57;100462.81;;;18.40;100.00
69766;BME280;57039;48.014;21.384;2023-09-12T00:23:00;100467.56;;;18.37;100.00
69766;BME280;57039;48.014;21.384;2023-09-12T00:24:03;100472.56;;;18.30;100.00
69766;BME280;57039;48.014;21.384;2023-09-12T00:25:06;100452.69;;;18.24;100.00
69766;BME280;57039;48.014;21.384;2023-09-12T00:26:09;100466.97;;;18.33;100.00
69766;BME280;57039;48.014;21.384;2023-09-12T00:27:12;100429.19;;;18.10;100.00
69766;BME280;57039;48.014;21.384;2023-09-12T00:28:16;100473.66;;;18.28;100.00
69766;BME280;57039;48.014;21.384;2023-09-12T00:29:18;100459.25;;;18.20;100.00
69766;BME280;57039;48.014;21.384;2023-09-12T00:30:21;100464.19;;;18.25;100.00
69766;BME280;57039;48.014;21.384;2023-09-12T00:31:24;100473.09;;;18.24;100.00
69766;BME280;57039;48.014;21.384;2023-09-12T00:32:27;100475.09;;;18.22;100.00
69766;BME280;57039;48.014;21.384;2023-09-12T00:33:30;100430.13;;;17.99;100.00
69766;BME280;57039;48.014;21.384;2023-09-12T00:34:33;100467.13;;;18.32;100.00
69766;BME280;57039;48.014;21.384;2023-09-12T00:35:36;100475.66;;;18.25;100.00
69766;BME280;57039;48.014;21.384;2023-09-12T00:36:39;100479.84;;;18.28;100.00
69766;BME280;57039;48.014;21.384;2023-09-12T00:37:42;100475.94;;;18.32;100.00
69766;BME280;57039;48.014;21.384;2023-09-12T00:38:45;100472.44;;;18.32;100.00
69766;BME280;57039;48.014;21.384;2023-09-12T00:39:48;100480.69;;;18.29;100.00
69766;BME280;57039;48.014;21.384;2023-09-12T00:40:51;100428.56;;;17.97;100.00
69766;BME280;57039;48.014;21.384;2023-09-12T00:41:54;100472.28;;;18.23;100.00
69766;BME280;57039;48.014;21.384;2023-09-12T00:42:57;100476.88;;;18.21;100.00
69766;BME280;57039;48.014;21.384;2023-09-12T00:44:01;100471.16;;;18.26;100.00
69766;BME280;57039;48.014;21.384;2023-09-12T00:45:04;100431.25;;;18.07;100.00
69766;BME280;57039;48.014;21.384;2023-09-12T00:46:07;100474.94;;;18.33;100.00
69766;BME280;57039;48.014;21.384;2023-09-12T00:47:11;100472.28;;;18.33;100.00
69766;BME280;57039;48.014;21.384;2023-09-12T00:48:14;100424.16;;;18.07;100.00
69766;BME280;57039;48.014;21.384;2023-09-12T00:49:20;100474.28;;;18.31;100.00
69766;BME280;57039;48.014;21.384;2023-09-12T00:50:25;100471.88;;;18.28;100.00
69766;BME280;57039;48.014;21.384;2023-09-12T00:51:29;100477.19;;;18.28;100.00
69766;BME280;57039;48.014;21.384;2023-09-12T00:52:34;100478.41;;;18.24;100.00
69766;BME280;57039;48.014;21.384;2023-09-12T00:53:38;100478.41;;;18.24;100.00
69766;BME280;57039;48.014;21.384;2023-09-12T00:54:42;100481.34;;;18.21;100.00
69766;BME280;57039;48.014;21.384;2023-09-12T00:55:48;100471.25;;;18.15;100.00
69766;BME280;57039;48.014;21.384;2023-09-12T00:56:52;100479.25;;;18.24;100.00
69766;BME280;57039;48.014;21.384;2023-09-12T00:57:55;100476.06;;;18.31;100.00
69766;BME280;57039;48.014;21.384;2023-09-12T00:58:57;100483.63;;;18.35;100.00
69766;BME280;57039;48.014;21.384;2023-09-12T01:00:05;100477.06;;;18.39;100.00
69766;BME280;57039;48.014;21.384;2023-09-12T01:01:13;100474.41;;;18.39;100.00
69766;BME280;57039;48.014;21.384;2023-09-12T01:02:17;100445.00;;;18.21;100.00
69766;BME280;57039;48.014;21.384;2023-09-12T01:03:20;100475.53;;;18.37;100.00
69766;BME280;57039;48.014;21.384;2023-09-12T01:04:24;100462.78;;;18.31;100.00
69766;BME280;57039;48.014;21.384;2023-09-12T01:05:37;100427.19;;;18.02;100.00
69766;BME280;57039;48.014;21.384;2023-09-12T01:06:40;100473.56;;;18.29;100.00
69766;BME280;57039;48.014;21.384;2023-09-12T01:07:43;100479.84;;;18.28;100.00
69766;BME280;57039;48.014;21.384;2023-09-12T01:08:46;100473.41;;;18.31;100.00
69766;BME280;57039;48.014;21.384;2023-09-12T01:09:49;100482.09;;;18.33;100.00
69766;BME280;57039;48.014;21.384;2023-09-12T01:10:55;100479.16;;;18.36;100.00
69766;BME280;57039;48.014;21.384;2023-09-12T01:12:00;100475.53;;;18.37;100.00
69766;BME280;57039;48.014;21.384;2023-09-12T01:13:05;100477.75;;;18.32;100.00
69766;BME280;57039;48.014;21.384;2023-09-12T01:14:08;100461.09;;;18.20;100.00
69766;BME280;57039;48.014;21.384;2023-09-12T01:15:11;100478.16;;;18.27;100.00
69766;BME280;57039;48.014;21.384;2023-09-12T01:16:16;100442.16;;;18.03;100.00
69766;BME280;57039;48.014;21.384;2023-09-12T01:17:19;100486.12;;;18.27;100.00
69766;BME280;57039;48.014;21.384;2023-09-12T01:18:22;100475.94;;;18.32;100.00
69766;BME280;57039;48.014;21.384;2023-09-12T01:19:25;100479.31;;;18.34;100.00
69766;BME280;57039;48.014;21.384;2023-09-12T01:20:31;100476.50;;;18.36;100.00
69766;BME280;57039;48.014;21.384;2023-09-12T01:27:32;100477.22;;;18.38;100.00
69766;BME280;57039;48.014;21.384;2023-09-12T01:28:38;100472.03;;;18.36;100.00
69766;BME280;57039;48.014;21.384;2023-09-12T01:29:46;100476.22;;;18.39;100.00
69766;BME280;57039;48.014;21.384;2023-09-12T01:30:49;100470.34;;;18.35;100.00
69766;BME280;57039;48.014;21.384;2023-09-12T01:31:53;100474.94;;;18.33;100.00
69766;BME280;57039;48.014;21.384;2023-09-12T01:32:57;100401.84;;;17.89;100.00
69766;BME280;57039;48.014;21.384;2023-09-12T01:34:09;100478.97;;;18.28;100.00
69766;BME280;57039;48.014;21.384;2023-09-12T01:35:12;100471.72;;;18.20;100.00
69766;BME280;57039;48.014;21.384;2023-09-12T01:36:15;100475.19;;;18.20;100.00
69766;BME280;57039;48.014;21.384;2023-09-12T01:37:18;100480.38;;;18.22;100.00
69766;BME280;57039;48.014;21.384;2023-09-12T01:38:21;100481.22;;;18.22;100.00
69766;BME280;57039;48.014;21.384;2023-09-12T01:39:24;100481.19;;;18.13;100.00
69766;BME280;57039;48.014;21.384;2023-09-12T01:40:59;100481.69;;;18.07;100.00
69766;BME280;57039;48.014;21.384;2023-09-12T01:42:02;100471.31;;;17.94;100.00
69766;BME280;57039;48.014;21.384;2023-09-12T01:43:06;100469.06;;;17.89;100.00
69766;BME280;57039;48.014;21.384;2023-09-12T01:44:10;100479.16;;;17.95;100.00
69766;BME280;57039;48.014;21.384;2023-09-12T01:45:17;100484.84;;;17.91;100.00
69766;BME280;57039;48.014;21.384;2023-09-12T01:46:25;100485.84;;;17.90;100.00
69766;BME280;57039;48.014;21.384;2023-09-12T01:47:29;100483.56;;;17.85;100.00
69766;BME280;57039;48.014;21.384;2023-09-12T01:48:34;100482.72;;;17.85;100.00
69766;BME280;57039;48.014;21.384;2023-09-12T01:49:42;100482.72;;;17.85;100.00
69766;BME280;57039;48.014;21.384;2023-09-12T01:50:45;100477.56;;;17.83;100.00
69766;BME280;57039;48.014;21.384;2023-09-12T01:51:50;100481.44;;;17.79;100.00
69766;BME280;57039;48.014;21.384;2023-09-12T01:52:53;100485.06;;;17.78;100.00
69766;BME280;57039;48.014;21.384;2023-09-12T01:53:56;100488.56;;;17.78;100.00
69766;BME280;57039;48.014;21.384;2023-09-12T01:55:02;100496.75;;;17.75;100.00
69766;BME280;57039;48.014;21.384;2023-09-12T01:56:06;100483.63;;;17.74;100.00
69766;BME280;57039;48.014;21.384;2023-09-12T01:57:09;100485.56;;;17.72;100.00
69766;BME280;57039;48.014;21.384;2023-09-12T01:58:33;100489.91;;;17.73;100.00
69766;BME280;57039;48.014;21.384;2023-09-12T01:59:36;100484.84;;;17.70;100.00
69766;BME280;57039;48.014;21.384;2023-09-12T02:00:40;100490.41;;;17.67;100.00
69766;BME280;57039;48.014;21.384;2023-09-12T02:01:43;100428.19;;;17.29;100.00
69766;BME280;57039;48.014;21.384;2023-09-12T02:02:46;100491.00;;;17.70;100.00
69766;BME280;57039;48.014;21.384;2023-09-12T02:03:49;100496.19;;;17.72;100.00
69766;BME280;57039;48.014;21.384;2023-09-12T02:05:21;100489.91;;;17.73;100.00
69766;BME280;57039;48.014;21.384;2023-09-12T02:06:25;100478.00;;;17.67;100.00
69766;BME280;57039;48.014;21.384;2023-09-12T02:07:30;100472.69;;;17.67;100.00
69766;BME280;57039;48.014;21.384;2023-09-12T02:08:34;100485.31;;;17.75;100.00
69766;BME280;57039;48.014;21.384;2023-09-12T02:09:37;100487.72;;;17.78;100.00
69766;BME280;57039;48.014;21.384;2023-09-12T02:10:40;100489.78;;;17.74;100.00
69766;BME280;57039;48.014;21.384;2023-09-12T02:11:43;100458.78;;;17.54;100.00
69766;BME280;57039;48.014;21.384;2023-09-12T02:12:46;100488.50;;;17.69;100.00
69766;BME280;57039;48.014;21.384;2023-09-12T02:13:48;100486.53;;;17.71;100.00
69766;BME280;57039;48.014;21.384;2023-09-12T02:14:51;100478.97;;;17.66;100.00
69766;BME280;57039;48.014;21.384;2023-09-12T02:16:00;100483.56;;;17.64;100.00
69766;BME280;57039;48.014;21.384;2023-09-12T02:17:04;100483.72;;;17.63;100.00
69766;BME280;57039;48.014;21.384;2023-09-12T02:18:07;100488.19;;;17.62;100.00
69766;BME280;57039;48.014;21.384;2023-09-12T02:19:10;100474.44;;;17.57;100.00
69766;BME280;57039;48.014;21.384;2023-09-12T02:20:13;100489.59;;;17.66;100.00
69766;BME280;57039;48.014;21.384;2023-09-12T02:21:16;100485.63;;;17.61;100.00
69766;BME280;57039;48.014;21.384;2023-09-12T02:22:19;100489.78;;;17.53;100.00
69766;BME280;57039;48.014;21.384;2023-09-12T02:23:22;100483.66;;;17.53;100.00
69766;BME280;57039;48.014;21.384;2023-09-12T02:24:25;100487.84;;;17.55;100.00
69766;BME280;57039;48.014;21.384;2023-09-12T02:25:28;100490.88;;;17.51;100.00
69766;BME280;57039;48.014;21.384;2023-09-12T02:26:31;100456.72;;;17.37;100.00
69766;BME280;57039;48.014;21.384;2023-09-12T02:27:40;100490.06;;;17.50;100.00
69766;BME280;57039;48.014;21.384;2023-09-12T02:28:45;100487.53;;;17.49;100.00
69766;BME280;57039;48.014;21.384;2023-09-12T02:29:48;100486.69;;;17.48;100.00
69766;BME280;57039;48.014;21.384;2023-09-12T02:30:51;100475.19;;;17.38;100.00
69766;BME280;57039;48.014;21.384;2023-09-12T02:31:55;100484.16;;;17.47;100.00
69766;BME280;57039;48.014;21.384;2023-09-12T02:32:58;100482.22;;;17.49;100.00
69766;BME280;57039;48.014;21.384;2023-09-12T02:34:01;100487.41;;;17.50;100.00
69766;BME280;57039;48.014;21.384;2023-09-12T02:35:04;100485.00;;;17.47;100.00
69766;BME280;57039;48.014;21.384;2023-09-12T02:36:07;100481.63;;;17.45;100.00
69766;BME280;57039;48.014;21.384;2023-09-12T02:37:10;100483.19;;;17.48;100.00
69766;BME280;57039;48.014;21.384;2023-09-12T02:38:13;100486.22;;;17.43;100.00
69766;BME280;57039;48.014;21.384;2023-09-12T02:39:16;100483.00;;;17.40;100.00
69766;BME280;57039;48.014;21.384;2023-09-12T02:40:19;100436.59;;;17.13;100.00
69766;BME280;57039;48.014;21.384;2023-09-12T02:41:22;100487.06;;;17.44;100.00
69766;BME280;57039;48.014;21.384;2023-09-12T02:42:25;100489.84;;;17.42;100.00
69766;BME280;57039;48.014;21.384;2023-09-12T02:43:28;100488.88;;;17.43;100.00
69766;BME280;57039;48.014;21.384;2023-09-12T02:44:31;100496.25;;;17.40;100.00
69766;BME280;57039;48.014;21.384;2023-09-12T02:45:34;100470.13;;;17.35;100.00
69766;BME280;57039;48.014;21.384;2023-09-12T02:46:37;100484.66;;;17.41;100.00
69766;BME280;57039;48.014;21.384;2023-09-12T02:47:40;100488.03;;;17.43;100.00
69766;BME280;57039;48.014;21.384;2023-09-12T02:48:43;100487.78;;;17.46;100.00
69766;BME280;57039;48.014;21.384;2023-09-12T02:49:47;100493.09;;;17.46;100.00
69766;BME280;57039;48.014;21.384;2023-09-12T02:50:49;100481.06;;;17.42;100.00
69766;BME280;57039;48.014;21.384;2023-09-12T02:51:52;100426.50;;;17.07;100.00
69766;BME280;57039;48.014;21.384;2023-09-12T02:52:55;100481.44;;;17.37;100.00
69766;BME280;57039;48.014;21.384;2023-09-12T02:53:58;100484.09;;;17.37;100.00
69766;BME280;57039;48.014;21.384;2023-09-12T02:55:01;100483.12;;;17.38;100.00
69766;BME280;57039;48.014;21.384;2023-09-12T02:56:04;100454.84;;;17.06;100.00
69766;BME280;57039;48.014;21.384;2023-09-12T02:57:06;100484.84;;;17.28;100.00
69766;BME280;57039;48.014;21.384;2023-09-12T02:58:09;100489.19;;;17.29;100.00
69766;BME280;57039;48.014;21.384;2023-09-12T02:59:12;100479.69;;;17.26;100.00
69766;BME280;57039;48.014;21.384;2023-09-12T03:00:15;100471.37;;;17.20;100.00
69766;BME280;57039;48.014;21.384;2023-09-12T03:01:20;100486.09;;;17.24;100.00
69766;BME280;57039;48.014;21.384;2023-09-12T03:02:23;100487.66;;;17.26;100.00
69766;BME280;57039;48.014;21.384;2023-09-12T03:03:26;100480.38;;;17.28;100.00
69766;BME280;57039;48.014;21.384;2023-09-12T03:04:29;100483.88;;;17.29;100.00
69766;BME280;57039;48.014;21.384;2023-09-12T03:05:32;100485.44;;;17.31;100.00
69766;BME280;57039;48.014;21.384;2023-09-12T03:06:35;100481.13;;;17.30;100.00
69766;BME280;57039;48.014;21.384;2023-09-12T03:07:38;100491.72;;;17.30;100.00
69766;BME280;57039;48.014;21.384;2023-09-12T03:08:42;100486.78;;;17.26;100.00
69766;BME280;57039;48.014;21.384;2023-09-12T03:09:49;100454.84;;;17.06;100.00
69766;BME280;57039;48.014;21.384;2023-09-12T03:10:56;100418.44;;;16.87;100.00
69766;BME280;57039;48.014;21.384;2023-09-12T03:12:01;100493.53;;;17.30;100.00
69766;BME280;57039;48.014;21.384;2023-09-12T03:13:05;100485.13;;;17.25;100.00
69766;BME280;57039;48.014;21.384;2023-09-12T03:14:08;100493.59;;;17.19;100.00
69766;BME280;57039;48.014;21.384;2023-09-12T03:15:11;100483.84;;;17.08;100.00
69766;BME280;57039;48.014;21.384;2023-09-12T03:16:14;100445.56;;;16.80;100.00
69766;BME280;57039;48.014;21.384;2023-09-12T03:17:17;100490.72;;;17.10;100.00
69766;BME280;57039;48.014;21.384;2023-09-12T03:18:20;100484.31;;;17.13;100.00
69766;BME280;57039;48.014;21.384;2023-09-12T03:19:23;100493.84;;;17.16;100.00
69766;BME280;57039;48.014;21.384;2023-09-12T03:20:26;100439.63;;;16.87;100.00
69766;BME280;57039;48.014;21.384;2023-09-12T03:21:30;100491.19;;;17.16;100.00
69766;BME280;57039;48.014;21.384;2023-09-12T03:22:33;100460.31;;;16.94;100.00
69766;BME280;57039;48.014;21.384;2023-09-12T03:23:40;100480.38;;;17.07;100.00
69766;BME280;57039;48.014;21.384;2023-09-12T03:24:43;100493.00;;;17.15;100.00
69766;BME280;57039;48.014;21.384;2023-09-12T03:25:47;100493.72;;;17.17;100.00
69766;BME280;57039;48.014;21.384;2023-09-12T03:26:51;100499.03;;;17.17;100.00
69766;BME280;57039;48.014;21.384;2023-09-12T03:27:54;100496.97;;;17.21;100.00
69766;BME280;57039;48.014;21.384;2023-09-12T03:28:57;100486.25;;;17.11;100.00
69766;BME280;57039;48.014;21.384;2023-09-12T03:29:59;100505.03;;;17.19;100.00
69766;BME280;57039;48.014;21.384;2023-09-12T03:31:13;100506.84;;;17.19;100.00
69766;BME280;57039;48.014;21.384;2023-09-12T03:32:17;100507.09;;;17.16;100.00
69766;BME280;57039;48.014;21.384;2023-09-12T03:33:20;100505.28;;;17.16;100.00
69766;BME280;57039;48.014;21.384;2023-09-12T03:34:22;100508.91;;;17.15;100.00
69766;BME280;57039;48.014;21.384;2023-09-12T03:35:25;100449.28;;;16.77;100.00
69766;BME280;57039;48.014;21.384;2023-09-12T03:36:28;100504.34;;;17.17;100.00
69766;BME280;57039;48.014;21.384;2023-09-12T03:37:31;100500.97;;;17.15;100.00
69766;BME280;57039;48.014;21.384;2023-09-12T03:38:34;100511.56;;;17.15;100.00
69766;BME280;57039;48.014;21.384;2023-09-12T03:39:37;100507.81;;;17.18;100.00
69766;BME280;57039;48.014;21.384;2023-09-12T03:40:40;100516.13;;;17.13;100.00
69766;BME280;57039;48.014;21.384;2023-09-12T03:41:43;100509.41;;;17.09;100.00
69766;BME280;57039;48.014;21.384;2023-09-12T03:42:46;100513.88;;;17.08;100.00
69766;BME280;57039;48.014;21.384;2023-09-12T03:43:49;100512.00;;;16.99;100.00
69766;BME280;57039;48.014;21.384;2023-09-12T03:44:52;100508.88;;;16.94;100.00
69766;BME280;57039;48.014;21.384;2023-09-12T03:45:54;100516.94;;;16.93;100.00
69766;BME280;57039;48.014;21.384;2023-09-12T03:46:57;100520.56;;;16.92;100.00
69766;BME280;57039;48.014;21.384;2023-09-12T03:48:01;100503.59;;;16.83;100.00
69766;BME280;57039;48.014;21.384;2023-09-12T03:49:03;100517.78;;;16.93;100.00
69766;BME280;57039;48.014;21.384;2023-09-12T03:50:07;100517.91;;;16.92;100.00
69766;BME280;57039;48.014;21.384;2023-09-12T03:51:09;100516.59;;;16.86;100.00
69766;BME280;57039;48.014;21.384;2023-09-12T03:52:12;100523.12;;;16.82;100.00
69766;BME280;57039;48.014;21.384;2023-09-12T03:53:15;100498.28;;;16.72;100.00
69766;BME280;57039;48.014;21.384;2023-09-12T03:54:18;100509.88;;;16.82;100.00
69766;BME280;57039;48.014;21.384;2023-09-12T03:55:21;100517.19;;;16.89;100.00
69766;BME280;57039;48.014;21.384;2023-09-12T03:56:24;100517.06;;;16.91;100.00
69766;BME280;57039;48.014;21.384;2023-09-12T03:57:27;100517.78;;;16.93;100.00
69766;BME280;57039;48.014;21.384;2023-09-12T03:58:30;100522.13;;;16.94;100.00
69766;BME280;57039;48.014;21.384;2023-09-12T03:59:33;100528.41;;;16.93;100.00
69766;BME280;57039;48.014;21.384;2023-09-12T04:00:36;100509.62;;;16.85;100.00
69766;BME280;57039;48.014;21.384;2023-09-12T04:01:39;100529.81;;;16.97;100.00
69766;BME280;57039;48.014;21.384;2023-09-12T04:02:42;100527.03;;;16.99;100.00
69766;BME280;57039;48.014;21.384;2023-09-12T04:03:45;100528.84;;;16.98;100.00
69766;BME280;57039;48.014;21.384;2023-09-12T04:04:50;100524.53;;;16.97;100.00
69766;BME280;57039;48.014;21.384;2023-09-12T04:05:54;100520.88;;;16.98;100.00
69766;BME280;57039;48.014;21.384;2023-09-12T04:06:57;100459.28;;;16.62;100.00
69766;BME280;57039;48.014;21.384;2023-09-12T04:08:00;100522.34;;;17.02;100.00
69766;BME280;57039;48.014;21.384;2023-09-12T04:09:03;100523.19;;;17.03;100.00
69766;BME280;57039;48.014;21.384;2023-09-12T04:10:06;100515.09;;;17.04;100.00
69766;BME280;57039;48.014;21.384;2023-09-12T04:11:09;100527.38;;;17.05;100.00
69766;BME280;57039;48.014;21.384;2023-09-12T04:12:13;100521.13;;;17.06;100.00
69766;BME280;57039;48.014;21.384;2023-09-12T04:13:16;100477.34;;;16.80;100.00
69766;BME280;57039;48.014;21.384;2023-09-12T04:14:20;100525.44;;;17.07;100.00
69766;BME280;57039;48.014;21.384;2023-09-12T04:15:23;100504.63;;;17.03;100.00
69766;BME280;57039;48.014;21.384;2023-09-12T04:16:25;100514.84;;;17.07;100.00
69766;BME280;57039;48.014;21.384;2023-09-12T04:17:29;100520.12;;;17.07;100.00
69766;BME280;57039;48.014;21.384;2023-09-12T04:18:32;100522.41;;;17.12;100.00
69766;BME280;57039;48.014;21.384;2023-09-12T04:19:35;100524.94;;;17.14;100.00
69766;BME280;57039;48.014;21.384;2023-09-12T04:20:38;100518.06;;;17.11;100.00
69766;BME280;57039;48.014;21.384;2023-09-12T04:21:41;100527.84;;;17.10;100.00
69766;BME280;57039;48.014;21.384;2023-09-12T04:22:44;100523.25;;;17.12;100.00
69766;BME280;57039;48.014;21.384;2023-09-12T04:23:47;100525.78;;;17.14;100.00
69766;BME280;57039;48.014;21.384;2023-09-12T04:24:50;100526.50;;;17.16;100.00
69766;BME280;57039;48.014;21.384;2023-09-12T04:25:52;100529.13;;;17.16;100.00
69766;BME280;57039;48.014;21.384;2023-09-12T04:26:55;100524.69;;;17.17;100.00
69766;BME280;57039;48.014;21.384;2023-09-12T04:27:58;100531.94;;;17.15;100.00
69766;BME280;57039;48.014;21.384;2023-09-12T04:29:01;100528.78;;;17.21;100.00
69766;BME280;57039;48.014;21.384;2023-09-12T04:30:04;100529.72;;;17.20;100.00
69766;BME280;57039;48.014;21.384;2023-09-12T04:31:07;100502.09;;;17.01;100.00
69766;BME280;57039;48.014;21.384;2023-09-12T04:32:10;100534.78;;;17.23;100.00
69766;BME280;57039;48.014;21.384;2023-09-12T04:33:13;100533.09;;;17.22;100.00
69766;BME280;57039;48.014;21.384;2023-09-12T04:34:16;100524.41;;;17.20;100.00
69766;BME280;57039;48.014;21.384;2023-09-12T04:35:19;100522.50;;;17.22;100.00
69766;BME280;57039;48.014;21.384;2023-09-12T04:36:23;100513.38;;;17.15;100.00
69766;BME280;57039;48.014;21.384;2023-09-12T04:37:25;100531.19;;;17.24;100.00
69766;BME280;57039;48.014;21.384;2023-09-12T04:38:28;100530.34;;;17.23;100.00
69766;BME280;57039;48.014;21.384;2023-09-12T04:39:31;100531.44;;;17.21;100.00
69766;BME280;57039;48.014;21.384;2023-09-12T04:40:34;100527.47;;;17.15;100.00
69766;BME280;57039;48.014;21.384;2023-09-12T04:41:37;100477.31;;;16.91;100.00
69766;BME280;57039;48.014;21.384;2023-09-12T04:42:40;100532.72;;;17.26;100.00
69766;BME280;57039;48.014;21.384;2023-09-12T04:43:43;100535.25;;;17.28;100.00
69766;BME280;57039;48.014;21.384;2023-09-12T04:44:49;100538.63;;;17.30;100.00
69766;BME280;57039;48.014;21.384;2023-09-12T04:45:52;100540.19;;;17.32;100.00
69766;BME280;57039;48.014;21.384;2023-09-12T04:46:55;100531.38;;;17.32;100.00
69766;BME280;57039;48.014;21.384;2023-09-12T04:47:58;100539.19;;;17.33;100.00
69766;BME280;57039;48.014;21.384;2023-09-12T04:49:01;100548.56;;;17.38;100.00
69766;BME280;57039;48.014;21.384;2023-09-12T04:50:04;100542.31;;;17.39;100.00
69766;BME280;57039;48.014;21.384;2023-09-12T04:51:07;100549.44;;;17.38;100.00
69766;BME280;57039;48.014;21.384;2023-09-12T04:52:10;100546.38;;;17.43;100.00
69766;BME280;57039;48.014;21.384;2023-09-12T04:53:13;100548.78;;;17.46;100.00
69766;BME280;57039;48.014;21.384;2023-09-12T04:54:16;100532.28;;;17.42;100.00
69766;BME280;57039;48.014;21.384;2023-09-12T04:55:19;100553.00;;;17.48;100.00
69766;BME280;57039;48.014;21.384;2023-09-12T04:56:21;100550.19;;;17.50;100.00
69766;BME280;57039;48.014;21.384;2023-09-12T04:57:27;100550.94;;;17.52;100.00
69766;BME280;57039;48.014;21.384;2023-09-12T04:58:33;100557.78;;;17.54;100.00
69766;BME280;57039;48.014;21.384;2023-09-12T04:59:36;100556.13;;;17.53;100.00
69766;BME280;57039;48.014;21.384;2023-09-12T05:00:39;100558.78;;;17.53;100.00
69766;BME280;57039;48.014;21.384;2023-09-12T05:01:43;100556.28;;;17.62;100.00
69766;BME280;57039;48.014;21.384;2023-09-12T05:02:45;100558.00;;;17.63;100.00
69766;BME280;57039;48.014;21.384;2023-09-12T05:03:48;100559.66;;;17.64;100.00
69766;BME280;57039;48.014;21.384;2023-09-12T05:04:51;100562.22;;;17.65;100.00
69766;BME280;57039;48.014;21.384;2023-09-12T05:05:55;100559.88;;;17.72;100.00
69766;BME280;57039;48.014;21.384;2023-09-12T05:06:58;100560.59;;;17.74;100.00
69766;BME280;57039;48.014;21.384;2023-09-12T05:08:00;100570.72;;;17.80;100.00
69766;BME280;57039;48.014;21.384;2023-09-12T05:09:03;100562.94;;;17.88;100.00
69766;BME280;57039;48.014;21.384;2023-09-12T05:10:09;100551.78;;;17.94;100.00
69766;BME280;57039;48.014;21.384;2023-09-12T05:11:11;100565.97;;;18.05;100.00
69766;BME280;57039;48.014;21.384;2023-09-12T05:12:17;100554.09;;;18.09;100.00
69766;BME280;57039;48.014;21.384;2023-09-12T05:13:20;100558.78;;;18.16;100.00
69766;BME280;57039;48.014;21.384;2023-09-12T05:14:23;100560.34;;;18.19;100.00
69766;BME280;57039;48.014;21.384;2023-09-12T05:15:26;100560.91;;;18.22;100.00
69766;BME280;57039;48.014;21.384;2023-09-12T05:16:29;100558.66;;;18.28;100.00
69766;BME280;57039;48.014;21.384;2023-09-12T05:17:32;100550.97;;;18.24;100.00
69766;BME280;57039;48.014;21.384;2023-09-12T05:18:35;100552.66;;;18.25;100.00
69766;BME280;57039;48.014;21.384;2023-09-12T05:19:38;100556.16;;;18.26;100.00
69766;BME280;57039;48.014;21.384;2023-09-12T05:20:41;100560.56;;;18.37;100.00
69766;BME280;57039;48.014;21.384;2023-09-12T05:21:44;100555.28;;;18.46;100.00
69766;BME280;57039;48.014;21.384;2023-09-12T05:22:47;100555.69;;;18.52;100.00
69766;BME280;57039;48.014;21.384;2023-09-12T05:23:49;100526.16;;;18.45;100.00
69766;BME280;57039;48.014;21.384;2023-09-12T05:24:52;100558.41;;;18.71;100.00
69766;BME280;57039;48.014;21.384;2023-09-12T05:25:55;100549.59;;;18.70;100.00
69766;BME280;57039;48.014;21.384;2023-09-12T05:26:58;100550.75;;;18.78;100.00
69766;BME280;57039;48.014;21.384;2023-09-12T05:28:01;100551.31;;;18.81;100.00
69766;BME280;57039;48.014;21.384;2023-09-12T05:29:03;100512.50;;;18.59;100.00
69766;BME280;57039;48.014;21.384;2023-09-12T05:30:08;100543.50;;;18.89;100.00
69766;BME280;57039;48.014;21.384;2023-09-12T05:31:11;100546.47;;;18.96;100.00